createdAt,value
2023-04-25T00:06:42.118Z,10.00
2023-04-25T00:11:34.530Z,10.00
2023-04-25T00:21:56.750Z,10.00
2023-04-25T00:26:48.598Z,10.10
2023-04-25T00:31:40.387Z,10.10
2023-04-25T00:36:32.306Z,10.10
2023-04-25T00:41:26.096Z,10.00
2023-04-25T00:46:17.793Z,9.90
2023-04-25T00:51:16.766Z,9.70
2023-04-25T00:56:08.879Z,9.60
2023-04-25T01:01:01.869Z,9.50
2023-04-25T01:05:54.057Z,9.40
2023-04-25T01:10:45.754Z,9.40
2023-04-25T01:15:37.472Z,9.30
2023-04-25T01:20:30.318Z,9.30
2023-04-25T01:25:23.583Z,9.30
2023-04-25T01:30:16.081Z,9.40
2023-04-25T01:35:11.819Z,9.30
2023-04-25T01:40:06.319Z,9.20
2023-04-25T01:44:58.228Z,9.10
2023-04-25T01:49:49.910Z,9.00
2023-04-25T01:54:44.988Z,8.90
2023-04-25T01:59:37.869Z,8.80
2023-04-25T02:04:29.629Z,8.70
2023-04-25T02:09:21.475Z,8.60
2023-04-25T02:14:13.295Z,8.50
2023-04-25T02:19:05.094Z,8.30
2023-04-25T02:23:57.340Z,8.20
2023-04-25T02:28:49.351Z,8.20
2023-04-25T02:33:41.017Z,7.90
2023-04-25T02:38:32.707Z,7.80
2023-04-25T02:43:24.434Z,7.80
2023-04-25T02:48:16.251Z,7.70
2023-04-25T02:58:14.465Z,7.60
2023-04-25T03:03:06.235Z,7.60
2023-04-25T03:07:58.016Z,7.50
2023-04-25T03:12:49.819Z,7.30
2023-04-25T03:17:41.591Z,7.20
2023-04-25T03:22:33.460Z,7.10
2023-04-25T03:27:25.131Z,7.00
2023-04-25T03:32:16.899Z,7.00
2023-04-25T03:37:08.665Z,7.00
2023-04-25T03:42:00.704Z,7.00
2023-04-25T03:46:52.420Z,7.10
2023-04-25T03:51:44.078Z,7.20
2023-04-25T03:56:35.913Z,7.10
2023-04-25T04:01:27.864Z,7.00
2023-04-25T04:06:21.601Z,6.90
2023-04-25T04:11:14.220Z,6.80
2023-04-25T04:16:06.403Z,6.70
2023-04-25T04:21:00.715Z,6.70
2023-04-25T04:25:57.180Z,6.70
2023-04-25T04:30:51.958Z,6.70
2023-04-25T04:35:43.954Z,6.80
2023-04-25T04:40:35.736Z,6.90
2023-04-25T04:45:28.503Z,7.00
2023-04-25T04:50:20.884Z,7.10
2023-04-25T04:55:13.119Z,7.40
2023-04-25T05:00:11.372Z,7.80
2023-04-25T05:05:03.100Z,9.20
2023-04-25T05:09:54.792Z,10.20
2023-04-25T05:14:46.631Z,10.80
2023-04-25T05:19:38.895Z,10.50
2023-04-25T05:24:31.543Z,10.20
2023-04-25T05:29:23.216Z,9.80
2023-04-25T05:34:15.117Z,9.70
2023-04-25T05:44:38.042Z,10.10
2023-04-25T05:49:29.725Z,10.60
2023-04-25T05:54:21.396Z,10.90
2023-04-25T05:59:13.070Z,10.60
2023-04-25T06:04:12.500Z,10.60
2023-04-25T06:09:04.491Z,10.80
2023-04-25T06:13:56.175Z,11.10
2023-04-25T06:18:47.849Z,10.90
2023-04-25T06:23:39.762Z,11.00
2023-04-25T06:28:31.779Z,10.90
2023-04-25T06:38:33.031Z,11.60
2023-04-25T06:43:25.147Z,12.00
2023-04-25T06:48:17.859Z,12.60
2023-04-25T06:53:09.738Z,12.70
2023-04-25T06:58:01.508Z,12.90
2023-04-25T07:02:57.306Z,13.10
2023-04-25T07:07:49.867Z,12.90
2023-04-25T07:12:41.684Z,12.60
2023-04-25T07:17:36.129Z,12.50
2023-04-25T07:22:28.328Z,12.20
2023-04-25T07:27:21.487Z,11.80
2023-04-25T07:32:15.336Z,11.20
2023-04-25T07:37:07.547Z,10.30
2023-04-25T07:41:59.596Z,9.30
2023-04-25T07:46:51.472Z,8.60
2023-04-25T07:51:44.548Z,8.50
2023-04-25T07:56:49.260Z,8.60
2023-04-25T08:01:44.784Z,8.40
2023-04-25T08:06:37.197Z,8.40
2023-04-25T08:11:29.412Z,8.40
2023-04-25T08:16:22.171Z,8.40
2023-04-25T08:21:22.795Z,8.50
2023-04-25T08:41:24.869Z,8.30
2023-04-25T08:46:19.445Z,8.40
2023-04-25T08:51:16.796Z,8.40
2023-04-25T08:56:11.980Z,8.40
2023-04-25T09:11:23.490Z,8.50
2023-04-25T09:16:18.556Z,8.50
2023-04-25T09:21:15.962Z,8.80
2023-04-25T09:26:10.236Z,8.90
2023-04-25T09:36:37.354Z,9.60
2023-04-25T09:41:31.421Z,9.80
2023-04-25T09:46:26.069Z,9.90
2023-04-25T09:51:20.478Z,10.00
2023-04-25T09:56:15.311Z,10.30
2023-04-25T10:01:12.165Z,10.60
2023-04-25T10:06:11.398Z,10.60
2023-04-25T10:11:07.981Z,11.00
2023-04-25T10:21:08.879Z,11.30
2023-04-25T10:26:03.621Z,11.20
2023-04-25T10:31:09.915Z,11.60
2023-04-25T10:36:23.572Z,11.60
2023-04-25T10:41:16.032Z,11.60
2023-04-25T10:46:39.796Z,12.00
2023-04-25T10:51:54.309Z,12.10
2023-04-25T10:56:50.593Z,12.20
2023-04-25T11:02:14.665Z,11.90
2023-04-25T11:07:38.359Z,11.80
2023-04-25T11:12:32.850Z,11.70
2023-04-25T11:17:28.266Z,11.80
2023-04-25T11:22:22.135Z,11.80
2023-04-25T11:27:16.022Z,12.30
2023-04-25T11:32:10.736Z,12.30
2023-04-25T11:37:05.704Z,12.50
2023-04-25T11:41:57.765Z,12.80
2023-04-25T11:46:50.670Z,13.40
2023-04-25T11:56:57.397Z,13.80
2023-04-25T12:01:56.079Z,13.40
2023-04-25T12:06:51.062Z,12.40
2023-04-25T12:11:58.015Z,12.20
2023-04-25T12:21:58.429Z,10.90
2023-04-25T12:27:14.754Z,10.30
2023-04-25T12:37:14.173Z,9.90
2023-04-25T12:47:16.647Z,10.20
2023-04-25T13:02:24.482Z,11.60
2023-04-25T13:12:24.437Z,12.00
2023-04-25T13:17:17.324Z,12.20
2023-04-25T13:27:19.519Z,12.40
2023-04-25T13:32:12.264Z,12.70
2023-04-25T13:42:12.319Z,13.30
2023-04-25T13:47:05.929Z,13.40
2023-04-25T13:52:06.589Z,13.30
2023-04-25T14:07:13.897Z,14.00
2023-04-25T14:37:50.159Z,13.10
2023-04-25T14:42:43.529Z,12.70
2023-04-25T14:47:40.362Z,12.50
2023-04-25T15:02:48.712Z,12.70
2023-04-25T15:07:42.029Z,12.80
2023-04-25T15:12:34.728Z,12.90
2023-04-25T15:17:26.931Z,12.60
2023-04-25T15:37:55.486Z,12.90
2023-04-25T15:48:08.815Z,12.90
2023-04-25T15:58:11.287Z,13.00
2023-04-25T16:03:14.777Z,12.60
2023-04-25T16:08:07.576Z,12.40
2023-04-25T16:13:03.679Z,12.20
2023-04-25T16:17:55.798Z,12.10
2023-04-25T16:22:55.049Z,12.10
2023-04-25T16:27:48.739Z,11.80
2023-04-25T16:32:43.961Z,11.40
2023-04-25T16:37:38.660Z,10.70
2023-04-25T16:47:36.565Z,9.90
2023-04-25T16:52:33.497Z,9.50
2023-04-25T17:02:39.002Z,9.00
2023-04-25T17:22:54.277Z,9.60
2023-04-25T17:43:17.354Z,9.80
2023-04-25T17:48:13.447Z,9.80
2023-04-25T18:03:18.061Z,9.80
2023-04-25T18:18:34.417Z,9.70
2023-04-25T18:23:27.535Z,9.70
2023-04-25T18:28:20.818Z,9.70
2023-04-25T18:38:32.111Z,9.80
2023-04-25T18:53:50.447Z,9.70
2023-04-25T18:58:47.876Z,9.70
2023-04-25T19:13:55.446Z,9.50
2023-04-25T19:18:49.372Z,9.40
2023-04-25T19:29:22.898Z,9.40
2023-04-25T19:34:14.618Z,9.30
2023-04-25T19:39:09.415Z,9.20
2023-04-25T19:44:24.489Z,9.20
2023-04-25T19:49:23.547Z,9.10
2023-04-25T19:54:16.750Z,8.90
2023-04-25T19:59:10.893Z,8.90
2023-04-25T20:04:04.465Z,8.90
2023-04-25T20:08:57.679Z,8.80
2023-04-25T20:14:02.235Z,8.80
2023-04-25T20:18:55.106Z,8.80
2023-04-25T20:23:47.222Z,8.80
2023-04-25T20:44:00.907Z,8.80
2023-04-25T21:00:24.308Z,8.90
2023-04-25T21:11:00.492Z,8.60
2023-04-25T21:21:02.881Z,8.60
2023-04-25T21:46:49.630Z,8.70
2023-04-25T21:51:41.599Z,8.50
2023-04-25T22:01:53.725Z,8.30
2023-04-25T22:50:41.602Z,8.10
2023-04-25T23:00:58.849Z,8.10
2023-04-25T23:05:50.767Z,8.10
2023-04-25T23:10:45.596Z,8.20
2023-04-25T23:15:37.304Z,8.10
2023-04-25T23:20:29.584Z,8.00
2023-04-25T23:25:21.758Z,7.80
2023-04-25T23:30:14.323Z,7.80
2023-04-25T23:35:06.961Z,7.80
2023-04-25T23:39:58.674Z,7.70
2023-04-25T23:44:50.456Z,7.60
2023-04-25T23:49:42.130Z,7.60
2023-04-25T23:54:33.793Z,7.50
2023-04-25T23:59:25.491Z,7.50
